sensor_id;sensor_type;location;lat;lon;timestamp;pressure;altitude;pressure_sealevel;temperature;humidity
44309;BME280;30022;55.846;37.340;2023-05-13T00:00:26;46600.41;;;-143.51;53.53
44309;BME280;30022;55.846;37.340;2023-05-13T00:02:51;46586.59;;;-143.51;53.46
44309;BME280;30022;55.846;37.340;2023-05-13T00:05:17;46612.28;;;-143.51;53.46
44309;BME280;30022;55.846;37.340;2023-05-13T00:07:43;46594.50;;;-143.51;53.39
44309;BME280;30022;55.846;37.340;2023-05-13T00:10:08;46606.34;;;-143.51;53.60
44309;BME280;30022;55.846;37.340;2023-05-13T00:12:34;46602.41;;;-143.51;53.63
44309;BME280;30022;55.846;37.340;2023-05-13T00:15:00;46612.28;;;-143.51;53.97
44309;BME280;30022;55.846;37.340;2023-05-13T00:17:25;46596.47;;;-143.51;54.30
44309;BME280;30022;55.846;37.340;2023-05-13T00:19:51;46598.44;;;-143.51;54.43
44309;BME280;30022;55.846;37.340;2023-05-13T00:22:17;46594.50;;;-143.51;54.76
44309;BME280;30022;55.846;37.340;2023-05-13T00:24:42;46608.31;;;-143.51;55.04
44309;BME280;30022;55.846;37.340;2023-05-13T00:27:08;46602.41;;;-143.51;55.01
44309;BME280;30022;55.846;37.340;2023-05-13T00:29:34;46604.38;;;-143.51;55.14
44309;BME280;30022;55.846;37.340;2023-05-13T00:32:00;46606.34;;;-143.51;55.51
44309;BME280;30022;55.846;37.340;2023-05-13T00:34:26;46576.72;;;-143.51;55.87
44309;BME280;30022;55.846;37.340;2023-05-13T00:36:51;46584.63;;;-143.51;55.76
44309;BME280;30022;55.846;37.340;2023-05-13T00:39:17;46602.41;;;-143.51;56.37
44309;BME280;30022;55.846;37.340;2023-05-13T00:41:43;46568.81;;;-143.51;56.34
44309;BME280;30022;55.846;37.340;2023-05-13T00:44:09;46590.53;;;-143.51;56.89
44309;BME280;30022;55.846;37.340;2023-05-13T00:46:34;46574.75;;;-143.51;56.82
44309;BME280;30022;55.846;37.340;2023-05-13T00:49:00;46590.53;;;-143.51;56.87
44309;BME280;30022;55.846;37.340;2023-05-13T00:51:26;46570.78;;;-143.51;57.00
44309;BME280;30022;55.846;37.340;2023-05-13T00:53:52;46592.53;;;-143.51;57.11
44309;BME280;30022;55.846;37.340;2023-05-13T00:56:18;46586.59;;;-143.51;57.13
44309;BME280;30022;55.846;37.340;2023-05-13T00:58:44;46562.91;;;-143.51;57.25
44309;BME280;30022;55.846;37.340;2023-05-13T01:11:48;46614.25;;;-143.51;58.99
44309;BME280;30022;55.846;37.340;2023-05-13T01:14:34;46584.63;;;-143.51;58.96
44309;BME280;30022;55.846;37.340;2023-05-13T01:17:02;46588.56;;;-143.51;58.83
44309;BME280;30022;55.846;37.340;2023-05-13T01:19:41;46566.84;;;-143.51;59.71
44309;BME280;30022;55.846;37.340;2023-05-13T01:22:08;46586.59;;;-143.51;60.50
44309;BME280;30022;55.846;37.340;2023-05-13T01:24:34;46626.09;;;-143.51;60.54
44309;BME280;30022;55.846;37.340;2023-05-13T01:27:01;46590.53;;;-143.51;60.83
44309;BME280;30022;55.846;37.340;2023-05-13T01:29:27;46572.78;;;-143.51;62.00
44309;BME280;30022;55.846;37.340;2023-05-13T01:31:54;46610.28;;;-143.51;61.93
44309;BME280;30022;55.846;37.340;2023-05-13T01:34:21;46572.78;;;-143.51;62.66
44309;BME280;30022;55.846;37.340;2023-05-13T01:36:48;46586.59;;;-143.51;62.71
44309;BME280;30022;55.846;37.340;2023-05-13T01:39:16;46570.78;;;-143.51;62.90
44309;BME280;30022;55.846;37.340;2023-05-13T01:41:43;46586.59;;;-143.51;63.55
44309;BME280;30022;55.846;37.340;2023-05-13T01:44:09;46588.56;;;-143.51;63.41
44309;BME280;30022;55.846;37.340;2023-05-13T01:46:36;46600.41;;;-143.51;64.48
44309;BME280;30022;55.846;37.340;2023-05-13T01:49:03;46590.53;;;-143.51;64.68
44309;BME280;30022;55.846;37.340;2023-05-13T01:51:28;46590.53;;;-143.51;64.92
44309;BME280;30022;55.846;37.340;2023-05-13T01:53:54;46586.59;;;-143.51;65.24
44309;BME280;30022;55.846;37.340;2023-05-13T01:56:20;46596.47;;;-143.51;65.37
44309;BME280;30022;55.846;37.340;2023-05-13T01:58:47;46588.56;;;-143.51;65.52
44309;BME280;30022;55.846;37.340;2023-05-13T02:01:13;46600.41;;;-143.51;66.14
44309;BME280;30022;55.846;37.340;2023-05-13T02:03:39;46594.50;;;-143.51;66.09
44309;BME280;30022;55.846;37.340;2023-05-13T02:06:05;46596.47;;;-143.51;66.09
44309;BME280;30022;55.846;37.340;2023-05-13T02:08:30;46610.28;;;-143.51;66.13
44309;BME280;30022;55.846;37.340;2023-05-13T02:10:56;46612.28;;;-143.51;66.13
44309;BME280;30022;55.846;37.340;2023-05-13T02:13:22;46608.31;;;-143.51;66.48
44309;BME280;30022;55.846;37.340;2023-05-13T02:15:47;46598.44;;;-143.51;66.95
44309;BME280;30022;55.846;37.340;2023-05-13T02:18:13;46584.63;;;-143.51;66.98
44309;BME280;30022;55.846;37.340;2023-05-13T02:20:59;46590.53;;;-143.51;67.49
44309;BME280;30022;55.846;37.340;2023-05-13T02:23:24;46608.31;;;-143.51;68.03
44309;BME280;30022;55.846;37.340;2023-05-13T02:25:50;46592.53;;;-143.51;67.96
44309;BME280;30022;55.846;37.340;2023-05-13T02:28:16;46598.44;;;-143.51;68.06
44309;BME280;30022;55.846;37.340;2023-05-13T02:30:42;46564.88;;;-143.51;68.06
44309;BME280;30022;55.846;37.340;2023-05-13T02:33:07;46602.41;;;-143.51;68.01
44309;BME280;30022;55.846;37.340;2023-05-13T02:35:33;46594.50;;;-143.51;67.82
44309;BME280;30022;55.846;37.340;2023-05-13T02:37:59;46598.44;;;-143.51;67.78
44309;BME280;30022;55.846;37.340;2023-05-13T02:40:26;46598.44;;;-143.51;68.18
44309;BME280;30022;55.846;37.340;2023-05-13T02:42:52;46582.66;;;-143.51;67.74
44309;BME280;30022;55.846;37.340;2023-05-13T02:45:25;46598.44;;;-143.51;67.33
44309;BME280;30022;55.846;37.340;2023-05-13T02:47:54;46574.75;;;-143.51;67.46
44309;BME280;30022;55.846;37.340;2023-05-13T02:50:20;46588.56;;;-143.51;67.25
44309;BME280;30022;55.846;37.340;2023-05-13T02:52:46;46574.75;;;-143.51;67.00
44309;BME280;30022;55.846;37.340;2023-05-13T02:55:12;46604.38;;;-143.51;66.99
44309;BME280;30022;55.846;37.340;2023-05-13T02:57:37;46614.25;;;-143.51;67.00
44309;BME280;30022;55.846;37.340;2023-05-13T03:00:03;46586.59;;;-143.51;66.95
44309;BME280;30022;55.846;37.340;2023-05-13T03:02:30;46586.59;;;-143.51;66.85
44309;BME280;30022;55.846;37.340;2023-05-13T03:04:56;46596.47;;;-143.51;66.54
44309;BME280;30022;55.846;37.340;2023-05-13T03:07:23;46618.19;;;-143.51;66.55
44309;BME280;30022;55.846;37.340;2023-05-13T03:09:48;46598.44;;;-143.51;66.68
44309;BME280;30022;55.846;37.340;2023-05-13T03:12:14;46598.44;;;-143.51;66.97
44309;BME280;30022;55.846;37.340;2023-05-13T03:14:40;46582.66;;;-143.51;66.47
44309;BME280;30022;55.846;37.340;2023-05-13T03:17:07;46608.31;;;-143.51;66.29
44309;BME280;30022;55.846;37.340;2023-05-13T03:19:34;46590.53;;;-143.51;66.47
44309;BME280;30022;55.846;37.340;2023-05-13T03:22:00;46614.25;;;-143.51;66.56
44309;BME280;30022;55.846;37.340;2023-05-13T03:24:26;46622.16;;;-143.51;66.66
44309;BME280;30022;55.846;37.340;2023-05-13T03:26:52;46622.16;;;-143.51;66.42
44309;BME280;30022;55.846;37.340;2023-05-13T03:29:18;46606.34;;;-143.51;66.90
44309;BME280;30022;55.846;37.340;2023-05-13T03:31:44;46604.38;;;-143.51;66.57
44309;BME280;30022;55.846;37.340;2023-05-13T03:34:09;46612.28;;;-143.51;66.24
44309;BME280;30022;55.846;37.340;2023-05-13T03:36:35;46626.09;;;-143.51;66.61
44309;BME280;30022;55.846;37.340;2023-05-13T03:39:01;46620.16;;;-143.51;66.28
44309;BME280;30022;55.846;37.340;2023-05-13T03:41:27;46600.41;;;-143.51;66.14
44309;BME280;30022;55.846;37.340;2023-05-13T03:43:55;46606.34;;;-143.51;65.66
44309;BME280;30022;55.846;37.340;2023-05-13T03:46:21;46620.16;;;-143.51;65.44
44309;BME280;30022;55.846;37.340;2023-05-13T03:48:47;46630.03;;;-143.51;66.07
44309;BME280;30022;55.846;37.340;2023-05-13T03:51:14;46610.28;;;-143.51;64.90
44309;BME280;30022;55.846;37.340;2023-05-13T03:53:40;46630.03;;;-143.51;64.86
44309;BME280;30022;55.846;37.340;2023-05-13T03:56:06;46576.72;;;-143.51;65.43
44309;BME280;30022;55.846;37.340;2023-05-13T03:58:31;46596.47;;;-143.51;64.38
44309;BME280;30022;55.846;37.340;2023-05-13T04:00:57;46610.28;;;-143.51;64.05
44309;BME280;30022;55.846;37.340;2023-05-13T04:03:23;46618.19;;;-143.51;63.82
44309;BME280;30022;55.846;37.340;2023-05-13T04:05:49;46626.09;;;-143.51;62.86
44309;BME280;30022;55.846;37.340;2023-05-13T04:08:16;46630.03;;;-143.51;62.97
44309;BME280;30022;55.846;37.340;2023-05-13T04:10:42;46635.97;;;-143.51;62.56
44309;BME280;30022;55.846;37.340;2023-05-13T04:13:08;46618.19;;;-143.51;62.36
44309;BME280;30022;55.846;37.340;2023-05-13T04:15:33;46610.28;;;-143.51;62.33
44309;BME280;30022;55.846;37.340;2023-05-13T04:17:59;46630.03;;;-143.51;61.49
44309;BME280;30022;55.846;37.340;2023-05-13T04:20:26;46608.31;;;-143.51;62.19
44309;BME280;30022;55.846;37.340;2023-05-13T04:22:53;46647.81;;;-143.51;60.67
44309;BME280;30022;55.846;37.340;2023-05-13T04:25:19;46637.94;;;-143.51;61.30
44309;BME280;30022;55.846;37.340;2023-05-13T04:27:46;46628.06;;;-143.51;60.48
44309;BME280;30022;55.846;37.340;2023-05-13T04:30:21;46616.22;;;-143.51;60.69
44309;BME280;30022;55.846;37.340;2023-05-13T04:32:47;46634.00;;;-143.51;60.10
44309;BME280;30022;55.846;37.340;2023-05-13T04:35:13;46641.88;;;-143.51;58.91
44309;BME280;30022;55.846;37.340;2023-05-13T04:37:41;46639.91;;;-143.51;59.47
44309;BME280;30022;55.846;37.340;2023-05-13T04:40:11;46639.91;;;-143.51;59.01
44309;BME280;30022;55.846;37.340;2023-05-13T04:42:36;46645.84;;;-143.51;56.97
44309;BME280;30022;55.846;37.340;2023-05-13T04:45:02;46622.16;;;-143.51;57.58
44309;BME280;30022;55.846;37.340;2023-05-13T04:47:29;46630.03;;;-143.51;57.74
44309;BME280;30022;55.846;37.340;2023-05-13T04:49:59;46657.69;;;-143.51;56.53
44309;BME280;30022;55.846;37.340;2023-05-13T04:52:25;46626.09;;;-143.51;55.89
44309;BME280;30022;55.846;37.340;2023-05-13T04:54:51;46643.88;;;-143.51;56.43
44309;BME280;30022;55.846;37.340;2023-05-13T04:57:16;46645.84;;;-143.51;55.69
44309;BME280;30022;55.846;37.340;2023-05-13T04:59:42;46661.63;;;-143.51;56.13
44309;BME280;30022;55.846;37.340;2023-05-13T05:02:08;46643.88;;;-143.51;53.42
44309;BME280;30022;55.846;37.340;2023-05-13T05:04:34;46653.75;;;-143.51;54.15
44309;BME280;30022;55.846;37.340;2023-05-13T05:07:01;46661.63;;;-143.51;53.04
44309;BME280;30022;55.846;37.340;2023-05-13T05:09:27;46667.56;;;-143.51;53.41
44309;BME280;30022;55.846;37.340;2023-05-13T05:11:54;46657.69;;;-143.51;51.86
44309;BME280;30022;55.846;37.340;2023-05-13T05:14:22;46667.56;;;-143.51;51.96
44309;BME280;30022;55.846;37.340;2023-05-13T05:16:49;46657.69;;;-143.51;52.08
44309;BME280;30022;55.846;37.340;2023-05-13T05:19:15;46661.63;;;-143.51;51.49
44309;BME280;30022;55.846;37.340;2023-05-13T05:21:41;46693.25;;;-143.51;50.25
44309;BME280;30022;55.846;37.340;2023-05-13T05:24:07;46661.63;;;-143.51;49.54
44309;BME280;30022;55.846;37.340;2023-05-13T05:26:32;46673.50;;;-143.51;49.27
44309;BME280;30022;55.846;37.340;2023-05-13T05:29:00;46683.38;;;-143.51;49.26
44309;BME280;30022;55.846;37.340;2023-05-13T05:31:25;46675.47;;;-143.51;49.72
44309;BME280;30022;55.846;37.340;2023-05-13T05:33:52;46665.59;;;-143.51;48.67
44309;BME280;30022;55.846;37.340;2023-05-13T05:36:19;46667.56;;;-143.51;47.56
44309;BME280;30022;55.846;37.340;2023-05-13T05:38:44;46665.59;;;-143.51;47.88
44309;BME280;30022;55.846;37.340;2023-05-13T05:41:12;46667.56;;;-143.51;47.90
44309;BME280;30022;55.846;37.340;2023-05-13T05:43:37;46689.28;;;-143.51;47.53
44309;BME280;30022;55.846;37.340;2023-05-13T05:46:03;46673.50;;;-143.51;46.87
44309;BME280;30022;55.846;37.340;2023-05-13T05:48:29;46693.25;;;-143.51;45.82
44309;BME280;30022;55.846;37.340;2023-05-13T05:50:55;46681.38;;;-143.51;46.41
44309;BME280;30022;55.846;37.340;2023-05-13T05:53:28;46657.69;;;-143.51;45.22
44309;BME280;30022;55.846;37.340;2023-05-13T05:55:53;46685.34;;;-143.51;45.56
44309;BME280;30022;55.846;37.340;2023-05-13T05:58:19;46665.59;;;-143.51;45.89
44309;BME280;30022;55.846;37.340;2023-05-13T06:00:45;46695.22;;;-143.51;46.35
44309;BME280;30022;55.846;37.340;2023-05-13T06:03:11;46673.50;;;-143.51;44.96
44309;BME280;30022;55.846;37.340;2023-05-13T06:05:37;46673.50;;;-143.51;44.59
44309;BME280;30022;55.846;37.340;2023-05-13T06:08:03;46697.19;;;-143.51;44.05
44309;BME280;30022;55.846;37.340;2023-05-13T06:10:29;46697.19;;;-143.51;43.44
44309;BME280;30022;55.846;37.340;2023-05-13T06:12:54;46685.34;;;-143.51;42.83
44309;BME280;30022;55.846;37.340;2023-05-13T06:15:20;46701.13;;;-143.51;42.69
44309;BME280;30022;55.846;37.340;2023-05-13T06:17:46;46683.38;;;-143.51;42.90
44309;BME280;30022;55.846;37.340;2023-05-13T06:20:12;46673.50;;;-143.51;42.21
44309;BME280;30022;55.846;37.340;2023-05-13T06:22:38;46685.34;;;-143.51;42.42
44309;BME280;30022;55.846;37.340;2023-05-13T06:25:04;46677.44;;;-143.51;41.89
44309;BME280;30022;55.846;37.340;2023-05-13T06:27:30;46703.13;;;-143.51;42.23
44309;BME280;30022;55.846;37.340;2023-05-13T06:29:57;46679.41;;;-143.51;42.28
44309;BME280;30022;55.846;37.340;2023-05-13T06:32:23;46695.22;;;-143.51;42.46
44309;BME280;30022;55.846;37.340;2023-05-13T06:34:48;46671.50;;;-143.51;43.32
44309;BME280;30022;55.846;37.340;2023-05-13T06:37:16;46703.13;;;-143.51;43.22
44309;BME280;30022;55.846;37.340;2023-05-13T06:39:42;46679.41;;;-143.51;42.73
44309;BME280;30022;55.846;37.340;2023-05-13T06:42:07;46701.13;;;-143.51;42.08
44309;BME280;30022;55.846;37.340;2023-05-13T06:44:41;46691.25;;;-143.51;42.34
44309;BME280;30022;55.846;37.340;2023-05-13T06:47:07;46685.34;;;-143.51;42.14
44309;BME280;30022;55.846;37.340;2023-05-13T06:49:34;46720.88;;;-143.51;43.01
44309;BME280;30022;55.846;37.340;2023-05-13T06:52:00;46693.25;;;-143.51;42.70
44309;BME280;30022;55.846;37.340;2023-05-13T06:54:25;46722.88;;;-143.51;43.09
44309;BME280;30022;55.846;37.340;2023-05-13T06:56:52;46716.94;;;-143.51;42.83
44309;BME280;30022;55.846;37.340;2023-05-13T06:59:18;46697.19;;;-143.51;43.47
44309;BME280;30022;55.846;37.340;2023-05-13T07:01:44;46693.25;;;-143.51;43.14
44309;BME280;30022;55.846;37.340;2023-05-13T07:04:10;46724.84;;;-143.51;42.82
44309;BME280;30022;55.846;37.340;2023-05-13T07:06:35;46730.75;;;-143.51;42.88
44309;BME280;30022;55.846;37.340;2023-05-13T07:09:01;46724.84;;;-143.51;42.83
44309;BME280;30022;55.846;37.340;2023-05-13T07:11:27;46728.78;;;-143.51;43.01
44309;BME280;30022;55.846;37.340;2023-05-13T07:13:53;46713.00;;;-143.51;43.56
44309;BME280;30022;55.846;37.340;2023-05-13T07:16:18;46732.75;;;-143.51;43.52
44309;BME280;30022;55.846;37.340;2023-05-13T07:18:44;46705.09;;;-143.51;43.74
44309;BME280;30022;55.846;37.340;2023-05-13T07:21:10;46709.03;;;-143.51;42.58
44309;BME280;30022;55.846;37.340;2023-05-13T07:23:36;46736.69;;;-143.51;43.10
44309;BME280;30022;55.846;37.340;2023-05-13T07:26:01;46738.66;;;-143.51;42.56
44309;BME280;30022;55.846;37.340;2023-05-13T07:28:27;46768.28;;;-143.51;41.49
44309;BME280;30022;55.846;37.340;2023-05-13T07:30:52;46728.78;;;-143.51;41.85
44309;BME280;30022;55.846;37.340;2023-05-13T07:33:18;46756.44;;;-143.51;42.02
44309;BME280;30022;55.846;37.340;2023-05-13T07:35:44;46740.63;;;-143.51;42.03
44309;BME280;30022;55.846;37.340;2023-05-13T07:38:09;46716.94;;;-143.51;41.48
44309;BME280;30022;55.846;37.340;2023-05-13T07:40:36;46750.50;;;-143.51;39.79
44309;BME280;30022;55.846;37.340;2023-05-13T07:43:01;46756.44;;;-143.51;39.66
44309;BME280;30022;55.846;37.340;2023-05-13T07:45:27;46736.69;;;-143.51;39.57
44309;BME280;30022;55.846;37.340;2023-05-13T07:47:53;46732.75;;;-143.51;39.39
44309;BME280;30022;55.846;37.340;2023-05-13T07:50:19;46736.69;;;-143.51;39.68
44309;BME280;30022;55.846;37.340;2023-05-13T07:52:45;46758.41;;;-143.51;40.07
44309;BME280;30022;55.846;37.340;2023-05-13T07:55:13;46726.81;;;-143.51;39.17
44309;BME280;30022;55.846;37.340;2023-05-13T07:57:39;46748.53;;;-143.51;38.95
44309;BME280;30022;55.846;37.340;2023-05-13T08:00:08;46772.22;;;-143.51;38.93
44309;BME280;30022;55.846;37.340;2023-05-13T08:02:40;46728.78;;;-143.51;38.98
44309;BME280;30022;55.846;37.340;2023-05-13T08:05:07;46732.75;;;-143.51;38.69
44309;BME280;30022;55.846;37.340;2023-05-13T08:07:32;46744.59;;;-143.51;39.37
44309;BME280;30022;55.846;37.340;2023-05-13T08:09:58;46736.69;;;-143.51;38.78
44309;BME280;30022;55.846;37.340;2023-05-13T08:12:23;46766.31;;;-143.51;38.17
44309;BME280;30022;55.846;37.340;2023-05-13T08:14:49;46754.47;;;-143.51;38.06
44309;BME280;30022;55.846;37.340;2023-05-13T08:17:15;46740.63;;;-143.51;38.21
44309;BME280;30022;55.846;37.340;2023-05-13T08:19:42;46752.47;;;-143.51;37.67
44309;BME280;30022;55.846;37.340;2023-05-13T08:22:07;46760.38;;;-143.51;37.23
44309;BME280;30022;55.846;37.340;2023-05-13T08:24:33;46766.31;;;-143.51;37.22
44309;BME280;30022;55.846;37.340;2023-05-13T08:26:59;46754.47;;;-143.51;36.79
44309;BME280;30022;55.846;37.340;2023-05-13T08:29:24;46754.47;;;-143.51;36.60
44309;BME280;30022;55.846;37.340;2023-05-13T08:31:50;46766.31;;;-143.51;36.62
44309;BME280;30022;55.846;37.340;2023-05-13T08:34:17;46754.47;;;-143.51;35.87
44309;BME280;30022;55.846;37.340;2023-05-13T08:36:43;46776.19;;;-143.51;36.26
44309;BME280;30022;55.846;37.340;2023-05-13T08:39:09;46756.44;;;-143.51;36.42
44309;BME280;30022;55.846;37.340;2023-05-13T08:41:35;46730.75;;;-143.51;37.13
44309;BME280;30022;55.846;37.340;2023-05-13T08:44:03;46748.53;;;-143.51;37.02
44309;BME280;30022;55.846;37.340;2023-05-13T08:46:28;46744.59;;;-143.51;36.88
44309;BME280;30022;55.846;37.340;2023-05-13T08:48:56;46736.69;;;-143.51;37.29
44309;BME280;30022;55.846;37.340;2023-05-13T08:51:22;46774.22;;;-143.51;37.57
44309;BME280;30022;55.846;37.340;2023-05-13T08:53:48;46772.22;;;-143.51;36.52
44309;BME280;30022;55.846;37.340;2023-05-13T08:56:14;46782.09;;;-143.51;37.43
44309;BME280;30022;55.846;37.340;2023-05-13T08:58:40;46766.31;;;-143.51;37.15
44309;BME280;30022;55.846;37.340;2023-05-13T09:01:05;46774.22;;;-143.51;37.72
44309;BME280;30022;55.846;37.340;2023-05-13T09:03:34;46772.22;;;-143.51;37.89
44309;BME280;30022;55.846;37.340;2023-05-13T09:06:00;46778.16;;;-143.51;37.69
44309;BME280;30022;55.846;37.340;2023-05-13T09:08:26;46760.38;;;-143.51;37.04
44309;BME280;30022;55.846;37.340;2023-05-13T09:10:52;46809.75;;;-143.51;37.10
44309;BME280;30022;55.846;37.340;2023-05-13T09:13:17;46784.09;;;-143.51;36.39
44309;BME280;30022;55.846;37.340;2023-05-13T09:15:43;46776.19;;;-143.51;35.16
44309;BME280;30022;55.846;37.340;2023-05-13T09:18:09;46780.13;;;-143.51;34.79
44309;BME280;30022;55.846;37.340;2023-05-13T09:20:35;46784.09;;;-143.51;33.59
44309;BME280;30022;55.846;37.340;2023-05-13T09:23:10;46791.97;;;-143.51;34.04
44309;BME280;30022;55.846;37.340;2023-05-13T09:25:37;46791.97;;;-143.51;33.90
44309;BME280;30022;55.846;37.340;2023-05-13T09:28:03;46803.84;;;-143.51;34.24
44309;BME280;30022;55.846;37.340;2023-05-13T09:30:33;46809.75;;;-143.51;34.81
44309;BME280;30022;55.846;37.340;2023-05-13T09:33:12;46780.13;;;-143.51;33.56
44309;BME280;30022;55.846;37.340;2023-05-13T09:35:39;46803.84;;;-143.51;33.35
44309;BME280;30022;55.846;37.340;2023-05-13T09:38:12;46791.97;;;-143.51;34.03
44309;BME280;30022;55.846;37.340;2023-05-13T09:40:38;46815.69;;;-143.51;34.67
44309;BME280;30022;55.846;37.340;2023-05-13T09:43:05;46772.22;;;-143.51;35.32
44309;BME280;30022;55.846;37.340;2023-05-13T09:45:31;46809.75;;;-143.51;34.98
44309;BME280;30022;55.846;37.340;2023-05-13T09:47:57;46784.09;;;-143.51;35.32
44309;BME280;30022;55.846;37.340;2023-05-13T09:50:22;46811.72;;;-143.51;35.24
44309;BME280;30022;55.846;37.340;2023-05-13T09:52:48;46807.78;;;-143.51;34.95
44309;BME280;30022;55.846;37.340;2023-05-13T09:55:13;46790.00;;;-143.51;35.39
44309;BME280;30022;55.846;37.340;2023-05-13T09:57:39;46809.75;;;-143.51;35.13
44309;BME280;30022;55.846;37.340;2023-05-13T10:00:05;46811.72;;;-143.51;34.37
44309;BME280;30022;55.846;37.340;2023-05-13T10:02:37;46825.56;;;-143.51;34.90
44309;BME280;30022;55.846;37.340;2023-05-13T10:05:03;46837.41;;;-143.51;34.87
44309;BME280;30022;55.846;37.340;2023-05-13T10:07:29;46841.34;;;-143.51;34.97
44309;BME280;30022;55.846;37.340;2023-05-13T10:09:59;46859.13;;;-143.51;34.45
44309;BME280;30022;55.846;37.340;2023-05-13T10:12:26;46819.63;;;-143.51;33.94
44309;BME280;30022;55.846;37.340;2023-05-13T10:14:53;46835.44;;;-143.51;33.88
44309;BME280;30022;55.846;37.340;2023-05-13T10:17:19;46857.16;;;-143.51;33.97
44309;BME280;30022;55.846;37.340;2023-05-13T10:19:45;46837.41;;;-143.51;34.27
44309;BME280;30022;55.846;37.340;2023-05-13T10:22:11;46823.59;;;-143.51;35.05
44309;BME280;30022;55.846;37.340;2023-05-13T10:24:38;46790.00;;;-143.51;34.92
44309;BME280;30022;55.846;37.340;2023-05-13T10:27:05;46835.44;;;-143.51;35.03
44309;BME280;30022;55.846;37.340;2023-05-13T10:29:30;46831.47;;;-143.51;35.02
44309;BME280;30022;55.846;37.340;2023-05-13T10:31:57;46811.72;;;-143.51;34.28
44309;BME280;30022;55.846;37.340;2023-05-13T10:34:23;46823.59;;;-143.51;34.13
44309;BME280;30022;55.846;37.340;2023-05-13T10:44:57;46825.56;;;-143.51;33.91
44309;BME280;30022;55.846;37.340;2023-05-13T10:47:23;46815.69;;;-143.51;34.75
44309;BME280;30022;55.846;37.340;2023-05-13T10:49:49;46819.63;;;-143.51;34.58
44309;BME280;30022;55.846;37.340;2023-05-13T10:52:16;46815.69;;;-143.51;34.50
44309;BME280;30022;55.846;37.340;2023-05-13T10:54:41;46823.59;;;-143.51;34.79
44309;BME280;30022;55.846;37.340;2023-05-13T10:57:07;46843.34;;;-143.51;34.48
44309;BME280;30022;55.846;37.340;2023-05-13T10:59:33;46837.41;;;-143.51;33.88
44309;BME280;30022;55.846;37.340;2023-05-13T11:02:01;46841.34;;;-143.51;33.43
44309;BME280;30022;55.846;37.340;2023-05-13T11:04:27;46843.34;;;-143.51;33.46
44309;BME280;30022;55.846;37.340;2023-05-13T11:06:53;46835.44;;;-143.51;33.23
44309;BME280;30022;55.846;37.340;2023-05-13T11:11:51;46835.44;;;-143.51;33.16
44309;BME280;30022;55.846;37.340;2023-05-13T11:14:18;46815.69;;;-143.51;31.93
44309;BME280;30022;55.846;37.340;2023-05-13T11:19:29;46807.78;;;-143.51;32.13
44309;BME280;30022;55.846;37.340;2023-05-13T11:21:57;46827.53;;;-143.51;32.34
44309;BME280;30022;55.846;37.340;2023-05-13T11:24:23;46843.34;;;-143.51;32.54
44309;BME280;30022;55.846;37.340;2023-05-13T11:26:52;46835.44;;;-143.51;32.69
44309;BME280;30022;55.846;37.340;2023-05-13T11:29:26;46874.94;;;-143.51;33.04
44309;BME280;30022;55.846;37.340;2023-05-13T11:31:53;46863.09;;;-143.51;32.75
44309;BME280;30022;55.846;37.340;2023-05-13T11:34:21;46870.97;;;-143.51;32.51
44309;BME280;30022;55.846;37.340;2023-05-13T11:36:51;46876.91;;;-143.51;32.68
44309;BME280;30022;55.846;37.340;2023-05-13T11:39:17;46863.09;;;-143.51;32.81
44309;BME280;30022;55.846;37.340;2023-05-13T11:41:50;46841.34;;;-143.51;33.22
44309;BME280;30022;55.846;37.340;2023-05-13T11:44:25;46863.09;;;-143.51;32.60
44309;BME280;30022;55.846;37.340;2023-05-13T11:46:57;46861.09;;;-143.51;32.21
44309;BME280;30022;55.846;37.340;2023-05-13T11:49:30;46857.16;;;-143.51;32.14
44309;BME280;30022;55.846;37.340;2023-05-13T11:52:03;46851.22;;;-143.51;32.01
44309;BME280;30022;55.846;37.340;2023-05-13T11:54:29;46861.09;;;-143.51;31.44
44309;BME280;30022;55.846;37.340;2023-05-13T11:56:55;46835.44;;;-143.51;31.69
44309;BME280;30022;55.846;37.340;2023-05-13T11:59:20;46851.22;;;-143.51;31.76
44309;BME280;30022;55.846;37.340;2023-05-13T12:01:59;46855.19;;;-143.51;31.44
44309;BME280;30022;55.846;37.340;2023-05-13T12:04:29;46874.94;;;-143.51;31.28
44309;BME280;30022;55.846;37.340;2023-05-13T12:06:55;46855.19;;;-143.51;31.30
44309;BME280;30022;55.846;37.340;2023-05-13T12:09:21;46855.19;;;-143.51;30.82
44309;BME280;30022;55.846;37.340;2023-05-13T12:11:48;46870.97;;;-143.51;30.96
44309;BME280;30022;55.846;37.340;2023-05-13T12:14:14;46869.00;;;-143.51;31.10
44309;BME280;30022;55.846;37.340;2023-05-13T12:16:40;46908.50;;;-143.51;31.21
44309;BME280;30022;55.846;37.340;2023-05-13T12:19:06;46867.03;;;-143.51;31.63
44309;BME280;30022;55.846;37.340;2023-05-13T12:21:32;46859.13;;;-143.51;30.20
44309;BME280;30022;55.846;37.340;2023-05-13T12:24:00;46880.84;;;-143.51;30.47
44309;BME280;30022;55.846;37.340;2023-05-13T12:26:26;46851.22;;;-143.51;30.34
44309;BME280;30022;55.846;37.340;2023-05-13T12:28:58;46859.13;;;-143.51;30.75
44309;BME280;30022;55.846;37.340;2023-05-13T12:31:24;46870.97;;;-143.51;30.75
44309;BME280;30022;55.846;37.340;2023-05-13T12:33:50;46882.84;;;-143.51;30.78
44309;BME280;30022;55.846;37.340;2023-05-13T12:36:22;46896.66;;;-143.51;30.47
44309;BME280;30022;55.846;37.340;2023-05-13T12:41:22;46870.97;;;-143.51;31.03
44309;BME280;30022;55.846;37.340;2023-05-13T12:43:50;46898.63;;;-143.51;31.11
44309;BME280;30022;55.846;37.340;2023-05-13T12:46:17;46876.91;;;-143.51;31.55
44309;BME280;30022;55.846;37.340;2023-05-13T12:48:42;46874.94;;;-143.51;31.41
44309;BME280;30022;55.846;37.340;2023-05-13T12:51:08;46857.16;;;-143.51;31.13
44309;BME280;30022;55.846;37.340;2023-05-13T12:53:33;46874.94;;;-143.51;31.12